Time;durP1;ratioP1;P1;durP2;ratioP2;P2;SDS_P1;SDS_P2;PMS_P1;PMS_P2;Temp;Humidity;BMP_temperature;BMP_pressure;BME280_temperature;BME280_humidity;BME280_pressure;Samples;Min_cycle;Max_cycle;Signal;HPM_P1;HPM_P2
2022/03/14 00:00:35;;;;;;;0.10;0.10;;;9.20;95.90;;;;;;5041194;28;20063;-67
2022/03/14 00:03:02;;;;;;;0.00;0.00;;;8.30;95.80;;;;;;5052824;28;20399;-66
2022/03/14 00:05:31;;;;;;;0.00;0.00;;;8.30;95.80;;;;;;5024409;28;20049;-66
2022/03/14 00:07:59;;;;;;;0.10;0.10;;;8.30;95.90;;;;;;5044862;28;20053;-65
2022/03/14 00:10:24;;;;;;;0.00;0.00;;;8.30;96.40;;;;;;5045389;28;20049;-66
2022/03/14 00:12:58;;;;;;;0.00;0.00;;;8.30;96.50;;;;;;5045488;28;20048;-68
2022/03/14 00:15:33;;;;;;;0.00;0.00;;;8.30;96.50;;;;;;5045451;28;20404;-67
2022/03/14 00:18:01;;;;;;;0.20;0.20;;;8.30;96.70;;;;;;5045379;28;20056;-66
2022/03/14 00:20:27;;;;;;;0.03;0.03;;;8.30;97.00;;;;;;5027812;28;20052;-66
2022/03/14 00:22:53;;;;;;;1.65;1.45;;;8.60;97.20;;;;;;5045476;28;20175;-66
2022/03/14 00:25:19;;;;;;;0.00;0.00;;;8.30;97.20;;;;;;5045049;28;20064;-67
2022/03/14 00:27:45;;;;;;;0.10;0.10;;;8.40;97.50;;;;;;5045300;28;20052;-66
2022/03/14 00:30:12;;;;;;;0.10;0.10;;;8.30;97.60;;;;;;5044858;28;20037;-61
2022/03/14 00:32:39;;;;;;;0.00;0.00;;;8.30;97.90;;;;;;5045021;28;20033;-60
2022/03/14 00:35:07;;;;;;;0.00;0.00;;;8.40;98.10;;;;;;5045660;28;20049;-67
2022/03/14 00:37:33;;;;;;;0.00;0.00;;;8.40;98.30;;;;;;5045864;28;20045;-67
2022/03/14 00:40:00;;;;;;;0.00;0.00;;;8.40;98.50;;;;;;5045053;28;20045;-67
2022/03/14 00:42:25;;;;;;;0.00;0.00;;;9.00;98.70;;;;;;5045016;28;20044;-67
2022/03/14 00:44:52;;;;;;;0.00;0.00;;;8.40;98.70;;;;;;5044789;28;20041;-67
2022/03/14 00:47:19;;;;;;;0.15;0.10;;;8.40;98.90;;;;;;5044448;28;20090;-67
2022/03/14 00:49:48;;;;;;;0.00;0.00;;;8.40;99.20;;;;;;5044040;28;20045;-67
2022/03/14 00:52:16;;;;;;;0.00;0.00;;;8.40;99.40;;;;;;5045406;28;20095;-67
2022/03/14 00:54:42;;;;;;;0.00;0.00;;;8.40;99.40;;;;;;5026849;28;20037;-68
2022/03/14 00:57:08;;;;;;;0.25;0.20;;;8.40;99.70;;;;;;5044930;28;20051;-67
2022/03/14 00:59:34;;;;;;;0.08;0.08;;;8.60;99.90;;;;;;5026928;28;20049;-67
2022/03/14 01:02:00;;;;;;;0.55;0.08;;;8.40;99.90;;;;;;5048989;28;20099;-66
2022/03/14 01:04:26;;;;;;;0.00;0.00;;;8.50;99.90;;;;;;5043587;28;20065;-67
2022/03/14 01:06:52;;;;;;;0.00;0.00;;;8.30;99.90;;;;;;5025762;28;20047;-68
2022/03/14 01:09:17;;;;;;;0.00;0.00;;;8.20;99.90;;;;;;5044870;28;20045;-66
2022/03/14 01:11:44;;;;;;;0.00;0.00;;;8.20;99.90;;;;;;5044291;28;20041;-67
2022/03/14 01:14:10;;;;;;;0.00;0.00;;;8.40;99.90;;;;;;5044745;28;20036;-67
2022/03/14 01:16:37;;;;;;;0.00;0.00;;;8.20;99.90;;;;;;5025829;28;20094;-67
2022/03/14 01:19:03;;;;;;;0.00;0.00;;;8.10;99.90;;;;;;5044456;28;20052;-67
2022/03/14 01:21:30;;;;;;;0.00;0.00;;;8.10;99.90;;;;;;5044868;28;20044;-67
2022/03/14 01:23:59;;;;;;;0.00;0.00;;;8.40;99.90;;;;;;5043670;28;20055;-67
2022/03/14 01:26:25;;;;;;;0.00;0.00;;;8.10;99.90;;;;;;5044401;28;20200;-67
2022/03/14 01:28:50;;;;;;;0.00;0.00;;;8.00;99.90;;;;;;5044081;28;20127;-67
2022/03/14 01:31:17;;;;;;;0.00;0.00;;;8.10;99.90;;;;;;5041889;28;20090;-67
2022/03/14 01:33:43;;;;;;;0.00;0.00;;;8.10;99.90;;;;;;5043880;28;20037;-67
2022/03/14 01:36:09;;;;;;;0.05;0.05;;;7.90;99.90;;;;;;5044552;28;20040;-69
2022/03/14 01:38:34;;;;;;;0.00;0.00;;;7.90;99.90;;;;;;5044308;28;20589;-59
2022/03/14 01:41:00;;;;;;;0.25;0.25;;;7.90;99.90;;;;;;5043939;28;20040;-68
2022/03/14 01:43:26;;;;;;;0.00;0.00;;;8.00;99.90;;;;;;5044188;28;20080;-68
2022/03/14 01:45:58;;;;;;;0.00;0.00;;;8.00;99.90;;;;;;5024993;28;20128;-68
2022/03/14 01:48:25;;;;;;;0.00;0.00;;;8.00;99.90;;;;;;5043545;28;20037;-68
2022/03/14 01:50:51;;;;;;;0.00;0.00;;;8.10;99.90;;;;;;5043738;28;20053;-68
2022/03/14 01:53:18;;;;;;;0.00;0.00;;;8.70;99.90;;;;;;5043876;28;20087;-68
2022/03/14 01:55:48;;;;;;;0.00;0.00;;;8.20;99.90;;;;;;5043692;28;20052;-68
2022/03/14 01:58:14;;;;;;;0.00;0.00;;;7.90;99.90;;;;;;5044228;28;20474;-66
2022/03/14 02:00:41;;;;;;;0.00;0.00;;;7.80;99.90;;;;;;5042384;28;20049;-65
2022/03/14 02:03:07;;;;;;;0.00;0.00;;;7.90;99.90;;;;;;5051801;28;20055;-66
2022/03/14 02:05:35;;;;;;;0.00;0.00;;;7.90;99.90;;;;;;5063287;28;20057;-66
2022/03/14 02:08:01;;;;;;;0.00;0.00;;;8.00;99.90;;;;;;5063845;28;20725;-66
2022/03/14 02:10:26;;;;;;;0.00;0.00;;;8.30;99.90;;;;;;5077605;22;20144;-71
2022/03/14 02:12:52;;;;;;;0.00;0.00;;;8.00;99.90;;;;;;5070148;28;20056;-70
2022/03/14 02:15:20;;;;;;;0.00;0.00;;;8.00;99.90;;;;;;5045332;28;20048;-71
2022/03/14 02:17:45;;;;;;;0.00;0.00;;;8.00;99.90;;;;;;5062809;28;20052;-70
2022/03/14 02:20:11;;;;;;;0.00;0.00;;;7.90;99.90;;;;;;5046141;28;20647;-70
2022/03/14 02:22:37;;;;;;;0.00;0.00;;;7.90;99.90;;;;;;5045700;28;20090;-69
2022/03/14 02:25:08;;;;;;;0.00;0.00;;;9.10;99.90;;;;;;5063915;28;20044;-71
2022/03/14 02:27:34;;;;;;;0.00;0.00;;;7.90;99.90;;;;;;5064153;28;20106;-70
2022/03/14 02:30:00;;;;;;;0.00;0.00;;;7.90;99.90;;;;;;5062028;28;20072;-70
2022/03/14 02:32:26;;;;;;;0.00;0.00;;;7.80;99.90;;;;;;5063758;28;20128;-69
2022/03/14 02:34:51;;;;;;;0.00;0.00;;;7.90;99.90;;;;;;5063142;28;20135;-68
2022/03/14 02:37:17;;;;;;;0.00;0.00;;;7.90;99.90;;;;;;5045914;28;20048;-69
2022/03/14 02:39:42;;;;;;;0.00;0.00;;;7.90;99.90;;;;;;5044779;28;20049;-67
2022/03/14 02:42:08;;;;;;;0.00;0.00;;;8.20;99.90;;;;;;5063349;28;20044;-69
2022/03/14 02:44:34;;;;;;;0.20;0.20;;;7.90;99.90;;;;;;5045551;28;20037;-64
2022/03/14 02:47:04;;;;;;;0.95;0.20;;;8.00;99.90;;;;;;5062583;28;20394;-70
2022/03/14 02:49:30;;;;;;;0.00;0.00;;;8.00;99.90;;;;;;5063423;28;20040;-69
2022/03/14 02:51:56;;;;;;;0.00;0.00;;;8.00;99.90;;;;;;5062784;28;20125;-70
2022/03/14 02:54:21;;;;;;;0.00;0.00;;;8.10;99.90;;;;;;5063383;28;20501;-70
2022/03/14 02:56:47;;;;;;;0.00;0.00;;;8.40;99.90;;;;;;5062342;28;20032;-69
2022/03/14 02:59:13;;;;;;;0.00;0.00;;;8.10;99.90;;;;;;5062854;28;20483;-70
2022/03/14 03:01:39;;;;;;;0.20;0.20;;;8.20;99.90;;;;;;5041187;28;20132;-68
2022/03/14 03:04:05;;;;;;;0.00;0.00;;;8.20;99.90;;;;;;5053616;28;20055;-70
2022/03/14 03:06:33;;;;;;;0.52;0.32;;;8.20;99.90;;;;;;5045681;28;20048;-70
2022/03/14 03:09:00;;;;;;;0.10;0.10;;;8.10;99.90;;;;;;5062347;28;20681;-69
2022/03/14 03:11:25;;;;;;;0.00;0.00;;;8.40;99.90;;;;;;5044644;28;20071;-69
2022/03/14 03:13:56;;;;;;;0.00;0.00;;;8.20;99.90;;;;;;5062094;28;20889;-70
2022/03/14 03:16:22;;;;;;;0.00;0.00;;;8.10;99.90;;;;;;5061830;28;20045;-71
2022/03/14 03:18:48;;;;;;;0.00;0.00;;;8.10;99.90;;;;;;5062326;28;20052;-70
2022/03/14 03:21:15;;;;;;;0.10;0.10;;;8.10;99.90;;;;;;5062386;28;20082;-70
2022/03/14 03:23:41;;;;;;;0.00;0.00;;;8.20;99.90;;;;;;5062418;28;20419;-69
2022/03/14 03:26:07;;;;;;;0.00;0.00;;;8.20;99.90;;;;;;5044457;28;20209;-69
2022/03/14 03:28:35;;;;;;;0.00;0.00;;;8.20;99.90;;;;;;5044995;28;20076;-70
2022/03/14 03:31:19;;;;;;;0.00;0.00;;;8.20;99.90;;;;;;5044287;28;20045;-69
2022/03/14 03:33:47;;;;;;;0.00;0.00;;;8.20;99.90;;;;;;5044157;28;20044;-69
2022/03/14 03:36:13;;;;;;;0.00;0.00;;;8.20;99.90;;;;;;5062065;28;20133;-70
2022/03/14 03:38:39;;;;;;;0.00;0.00;;;8.20;99.90;;;;;;5044591;28;20249;-69
2022/03/14 03:41:05;;;;;;;0.17;0.17;;;8.30;99.90;;;;;;5061756;28;20040;-69
2022/03/14 03:43:31;;;;;;;0.20;0.03;;;8.30;99.90;;;;;;5062501;28;20032;-70
2022/03/14 03:45:57;;;;;;;0.00;0.00;;;8.40;99.90;;;;;;5061311;28;20044;-69
2022/03/14 03:48:23;;;;;;;0.00;0.00;;;8.40;99.90;;;;;;5044229;28;20084;-69
2022/03/14 03:50:49;;;;;;;0.00;0.00;;;8.50;99.90;;;;;;5061757;28;20161;-69
2022/03/14 03:53:15;;;;;;;0.00;0.00;;;8.80;99.90;;;;;;5061575;28;20123;-69
2022/03/14 03:55:40;;;;;;;0.20;0.20;;;8.80;99.90;;;;;;5043475;28;20135;-69
2022/03/14 03:58:07;;;;;;;0.10;0.10;;;8.70;99.90;;;;;;5044167;28;20056;-70
2022/03/14 04:00:33;;;;;;;0.10;0.10;;;8.80;99.90;;;;;;5061398;28;21065;-70
2022/03/14 04:03:00;;;;;;;0.00;0.00;;;8.80;99.90;;;;;;5053412;28;20047;-69
2022/03/14 04:05:27;;;;;;;0.00;0.00;;;8.90;99.90;;;;;;5024082;28;20060;-68
2022/03/14 04:07:57;;;;;;;0.00;0.00;;;8.90;99.90;;;;;;5041762;28;20106;-70
2022/03/14 04:10:26;;;;;;;0.10;0.10;;;8.80;99.90;;;;;;5023589;28;20158;-70
2022/03/14 04:12:53;;;;;;;0.25;0.20;;;8.90;99.90;;;;;;5023900;28;20380;-69
2022/03/14 04:15:22;;;;;;;0.00;0.00;;;8.90;99.90;;;;;;5023453;28;20053;-69
2022/03/14 04:17:49;;;;;;;0.00;0.00;;;8.90;99.90;;;;;;5023420;28;20060;-69
2022/03/14 04:20:15;;;;;;;0.55;0.10;;;8.90;99.90;;;;;;5041631;28;20084;-69
2022/03/14 04:22:41;;;;;;;0.03;0.03;;;8.90;99.90;;;;;;5041729;28;20122;-71
2022/03/14 04:25:11;;;;;;;0.03;0.03;;;8.90;99.90;;;;;;5041380;28;20033;-70
2022/03/14 04:27:37;;;;;;;0.00;0.00;;;8.80;99.90;;;;;;5041647;28;20052;-69
2022/03/14 04:30:03;;;;;;;0.00;0.00;;;8.90;99.90;;;;;;5041197;28;20399;-70
2022/03/14 04:32:29;;;;;;;0.00;0.00;;;9.70;99.90;;;;;;5042028;28;20099;-70
2022/03/14 04:34:54;;;;;;;0.00;0.00;;;8.90;99.90;;;;;;5040657;28;20373;-71
2022/03/14 04:37:20;;;;;;;0.30;0.20;;;8.90;99.90;;;;;;5041911;28;20138;-70
2022/03/14 04:39:46;;;;;;;0.00;0.00;;;8.90;99.90;;;;;;5041346;28;20068;-69
2022/03/14 04:42:12;;;;;;;0.00;0.00;;;9.50;99.90;;;;;;5023358;28;20500;-70
2022/03/14 04:44:38;;;;;;;0.00;0.00;;;8.90;99.90;;;;;;5022607;28;20045;-69
2022/03/14 04:47:04;;;;;;;0.00;0.00;;;8.90;99.90;;;;;;5041967;28;20060;-69
2022/03/14 04:49:30;;;;;;;0.00;0.00;;;9.00;99.90;;;;;;5041959;28;20049;-70
2022/03/14 04:51:56;;;;;;;0.00;0.00;;;9.00;99.90;;;;;;5023309;28;20098;-70
2022/03/14 04:54:22;;;;;;;0.00;0.00;;;9.00;99.90;;;;;;5027441;28;20086;-69
2022/03/14 04:56:48;;;;;;;0.00;0.00;;;9.00;99.90;;;;;;5044661;28;20060;-69
2022/03/14 04:59:14;;;;;;;0.10;0.10;;;9.10;99.90;;;;;;5026679;28;20044;-69
2022/03/14 05:01:40;;;;;;;0.00;0.00;;;8.90;99.90;;;;;;5046273;28;20543;-69
2022/03/14 05:04:05;;;;;;;0.00;0.00;;;9.90;99.90;;;;;;5053637;28;20140;-70
2022/03/14 05:06:32;;;;;;;0.00;0.00;;;8.90;99.90;;;;;;5045500;28;20116;-70
2022/03/14 05:08:58;;;;;;;0.90;0.10;;;9.00;99.90;;;;;;5044016;28;20049;-69
2022/03/14 05:11:25;;;;;;;0.10;0.10;;;8.90;99.90;;;;;;5026863;28;20056;-69
2022/03/14 05:13:51;;;;;;;0.00;0.00;;;8.90;99.90;;;;;;5043112;28;20060;-69
2022/03/14 05:16:17;;;;;;;0.00;0.00;;;8.90;99.90;;;;;;5043993;28;20044;-70
2022/03/14 05:18:42;;;;;;;0.00;0.00;;;9.00;99.90;;;;;;5044740;28;20055;-66
2022/03/14 05:21:08;;;;;;;0.17;0.17;;;8.90;99.90;;;;;;5044714;28;20041;-70
2022/03/14 05:23:34;;;;;;;0.00;0.00;;;9.10;99.90;;;;;;5045137;28;20088;-70
2022/03/14 05:26:00;;;;;;;0.00;0.00;;;8.80;99.90;;;;;;5026314;28;20045;-70
2022/03/14 05:28:26;;;;;;;0.10;0.10;;;8.80;99.90;;;;;;5026831;28;20041;-70
2022/03/14 05:30:53;;;;;;;0.00;0.00;;;8.70;99.90;;;;;;5043127;28;20048;-71
2022/03/14 05:33:18;;;;;;;0.00;0.00;;;8.70;99.90;;;;;;5044544;28;20369;-70
2022/03/14 05:35:44;;;;;;;0.10;0.10;;;8.70;99.90;;;;;;5025827;28;20107;-69
2022/03/14 05:38:10;;;;;;;0.00;0.00;;;9.30;99.90;;;;;;5026317;28;20045;-73
2022/03/14 05:40:36;;;;;;;0.00;0.00;;;8.70;99.90;;;;;;5043993;28;20044;-72
2022/03/14 05:43:09;;;;;;;0.00;0.00;;;8.60;99.90;;;;;;5044057;28;20047;-69
2022/03/14 05:45:35;;;;;;;0.15;0.15;;;8.60;99.90;;;;;;5042963;28;20644;-70
2022/03/14 05:48:01;;;;;;;0.00;0.00;;;8.50;99.90;;;;;;5044642;28;20436;-69
2022/03/14 05:50:27;;;;;;;0.00;0.00;;;8.50;99.90;;;;;;5025878;28;20124;-69
2022/03/14 05:52:53;;;;;;;0.00;0.00;;;8.50;99.90;;;;;;5026221;28;20109;-69
2022/03/14 05:55:19;;;;;;;0.00;0.00;;;8.50;99.90;;;;;;5044464;28;20043;-69
2022/03/14 05:57:45;;;;;;;0.00;0.00;;;8.50;99.90;;;;;;5043604;28;20546;-68
2022/03/14 06:00:12;;;;;;;1.08;0.32;;;8.40;99.90;;;;;;5042706;28;20049;-68
2022/03/14 06:02:39;;;;;;;0.10;0.10;;;8.40;99.90;;;;;;5036186;28;20049;-67
2022/03/14 06:05:05;;;;;;;0.00;0.00;;;8.40;99.90;;;;;;5043897;28;20123;-68
2022/03/14 06:07:31;;;;;;;0.00;0.00;;;8.30;99.90;;;;;;5063802;28;20048;-68
2022/03/14 06:09:57;;;;;;;0.00;0.00;;;8.30;99.90;;;;;;5063133;28;20053;-68
2022/03/14 06:12:28;;;;;;;0.10;0.10;;;8.30;99.90;;;;;;5064086;28;20055;-68
2022/03/14 06:14:55;;;;;;;0.00;0.00;;;8.50;99.90;;;;;;5044419;28;20044;-68
2022/03/14 06:17:21;;;;;;;0.00;0.00;;;8.40;99.90;;;;;;5045996;28;20149;-68
2022/03/14 06:19:47;;;;;;;0.00;0.00;;;8.60;99.90;;;;;;5063121;28;20062;-68
2022/03/14 06:22:22;;;;;;;0.00;0.00;;;8.20;99.90;;;;;;5063203;28;20048;-68
2022/03/14 06:24:49;;;;;;;0.10;0.10;;;8.60;99.90;;;;;;5062244;28;20048;-67
2022/03/14 06:27:16;;;;;;;0.00;0.00;;;8.10;99.90;;;;;;5045874;28;20528;-67
2022/03/14 06:29:42;;;;;;;0.22;0.20;;;8.10;99.90;;;;;;5062245;28;20544;-68
2022/03/14 06:32:08;;;;;;;0.50;0.25;;;8.00;99.90;;;;;;5062789;28;20037;-68
2022/03/14 06:34:34;;;;;;;0.10;0.10;;;8.00;99.90;;;;;;5046058;28;20521;-68
2022/03/14 06:37:00;;;;;;;12.13;2.72;;;8.00;99.90;;;;;;5063544;28;20032;-68
2022/03/14 06:39:25;;;;;;;0.22;0.22;;;8.10;99.90;;;;;;5062855;28;20044;-69
2022/03/14 06:41:51;;;;;;;0.00;0.00;;;8.00;99.90;;;;;;5062471;28;20087;-68
2022/03/14 06:44:17;;;;;;;0.00;0.00;;;8.00;99.90;;;;;;5062470;28;20045;-68
2022/03/14 06:46:43;;;;;;;0.00;0.00;;;8.00;99.90;;;;;;5044573;28;20499;-68
2022/03/14 06:49:10;;;;;;;0.00;0.00;;;8.10;99.90;;;;;;5062718;28;20055;-69
2022/03/14 06:51:37;;;;;;;0.00;0.00;;;8.00;99.90;;;;;;5062836;28;20036;-70
2022/03/14 06:54:02;;;;;;;0.00;0.00;;;8.00;99.90;;;;;;5063090;28;20044;-70
2022/03/14 06:56:28;;;;;;;0.25;0.25;;;8.10;99.90;;;;;;5062863;28;20052;-70
2022/03/14 06:58:53;;;;;;;0.00;0.00;;;8.40;99.90;;;;;;5044289;28;20106;-69
2022/03/14 07:01:19;;;;;;;0.10;0.10;;;8.10;99.90;;;;;;5041072;28;20422;-69
2022/03/14 07:03:45;;;;;;;0.03;0.03;;;8.10;99.90;;;;;;5050956;28;20100;-69
2022/03/14 07:06:10;;;;;;;0.03;0.03;;;8.10;99.90;;;;;;5024442;28;20103;-68
2022/03/14 07:08:36;;;;;;;0.25;0.25;;;8.10;99.90;;;;;;5042455;28;20490;-70
2022/03/14 07:11:01;;;;;;;0.00;0.00;;;8.30;99.90;;;;;;5042559;28;20056;-69
2022/03/14 07:13:27;;;;;;;0.00;0.00;;;8.00;99.90;;;;;;5024732;28;20052;-69
2022/03/14 07:15:53;;;;;;;0.10;0.10;;;8.00;99.90;;;;;;5040555;28;20044;-67
2022/03/14 07:18:18;;;;;;;0.00;0.00;;;8.00;99.90;;;;;;5024789;28;20078;-68
2022/03/14 07:20:44;;;;;;;0.00;0.00;;;8.00;99.90;;;;;;5024335;28;20543;-66
2022/03/14 07:23:10;;;;;;;0.00;0.00;;;8.00;99.90;;;;;;5042073;28;20048;-68
2022/03/14 07:25:39;;;;;;;0.00;0.00;;;8.30;99.90;;;;;;5042185;28;20072;-63
2022/03/14 07:28:07;;;;;;;0.30;0.30;;;8.00;99.90;;;;;;5042250;28;20134;-65
2022/03/14 07:30:33;;;;;;;0.32;0.32;;;7.90;99.90;;;;;;5042011;28;20041;-66
2022/03/14 07:32:59;;;;;;;0.00;0.00;;;8.00;99.90;;;;;;5041980;28;20407;-65
2022/03/14 07:35:26;;;;;;;0.00;0.00;;;8.00;99.90;;;;;;5042401;28;20051;-66
2022/03/14 07:37:53;;;;;;;0.20;0.20;;;7.90;99.90;;;;;;5024005;28;20078;-66
2022/03/14 07:40:19;;;;;;;0.00;0.00;;;8.00;99.90;;;;;;5024241;28;20045;-66
2022/03/14 07:42:47;;;;;;;0.00;0.00;;;8.00;99.90;;;;;;5041913;28;20059;-66
2022/03/14 07:45:16;;;;;;;0.13;0.13;;;7.90;99.90;;;;;;5041529;28;20040;-67
2022/03/14 07:47:42;;;;;;;0.25;0.25;;;8.70;99.90;;;;;;5041387;28;20562;-67
2022/03/14 07:50:10;;;;;;;0.35;0.35;;;7.90;99.90;;;;;;5024554;28;20041;-67
2022/03/14 07:52:37;;;;;;;0.00;0.00;;;8.10;99.90;;;;;;5024028;28;20052;-67
2022/03/14 07:55:04;;;;;;;0.00;0.00;;;8.40;99.90;;;;;;5024445;28;20056;-68
2022/03/14 07:57:31;;;;;;;0.00;0.00;;;7.90;99.90;;;;;;5041959;28;20087;-69
2022/03/14 07:59:59;;;;;;;0.10;0.10;;;7.90;99.90;;;;;;5040773;28;20052;-69
2022/03/14 08:02:24;;;;;;;0.00;0.00;;;8.00;99.90;;;;;;5050663;28;20697;-68
2022/03/14 08:04:50;;;;;;;0.00;0.00;;;8.10;99.90;;;;;;5044016;28;20076;-69
2022/03/14 08:07:16;;;;;;;0.10;0.10;;;8.10;99.90;;;;;;5041969;28;20051;-68
2022/03/14 08:09:42;;;;;;;0.40;0.40;;;8.00;99.90;;;;;;5041810;28;20036;-68
2022/03/14 08:12:09;;;;;;;0.00;0.00;;;8.10;99.90;;;;;;5041852;28;20064;-68
2022/03/14 08:14:35;;;;;;;0.00;0.00;;;8.10;99.90;;;;;;5006843;28;20550;-68
2022/03/14 08:17:01;;;;;;;0.20;0.00;;;8.00;99.90;;;;;;5042089;28;20072;-68
2022/03/14 08:19:27;;;;;;;0.25;0.25;;;8.10;99.90;;;;;;5024414;28;20419;-68
2022/03/14 08:21:54;;;;;;;0.20;0.20;;;8.10;99.90;;;;;;5040841;28;20043;-68
2022/03/14 08:24:19;;;;;;;0.00;0.00;;;8.00;99.90;;;;;;5042137;28;20474;-68
2022/03/14 08:26:45;;;;;;;0.00;0.00;;;8.10;99.90;;;;;;5041383;28;20044;-66
2022/03/14 08:29:11;;;;;;;0.00;0.00;;;8.00;99.90;;;;;;5044614;28;20040;-69
2022/03/14 08:31:37;;;;;;;0.10;0.10;;;8.10;99.90;;;;;;5044943;28;20495;-68
2022/03/14 08:34:04;;;;;;;0.03;0.03;;;8.10;99.90;;;;;;5045715;28;20045;-67
2022/03/14 08:36:31;;;;;;;0.05;0.05;;;8.00;99.90;;;;;;5027824;28;20049;-66
2022/03/14 08:38:56;;;;;;;0.00;0.00;;;8.40;99.90;;;;;;5044596;28;20068;-67
2022/03/14 08:41:22;;;;;;;0.10;0.10;;;8.10;99.90;;;;;;5045332;28;20487;-66
2022/03/14 08:43:48;;;;;;;0.00;0.00;;;8.10;99.90;;;;;;5044793;28;20045;-68
2022/03/14 08:46:15;;;;;;;0.00;0.00;;;8.20;99.90;;;;;;5054905;28;20064;-68
2022/03/14 08:48:41;;;;;;;0.00;0.00;;;8.10;99.90;;;;;;5055388;28;20044;-67
2022/03/14 08:51:07;;;;;;;0.00;0.00;;;8.20;99.90;;;;;;5045006;28;20045;-68
2022/03/14 08:53:33;;;;;;;0.00;0.00;;;8.00;99.90;;;;;;5045672;28;20472;-68
2022/03/14 08:56:02;;;;;;;0.00;0.00;;;8.20;99.90;;;;;;5044327;28;20064;-67
2022/03/14 08:58:29;;;;;;;0.00;0.00;;;8.10;99.90;;;;;;5045370;28;20037;-68
2022/03/14 09:00:57;;;;;;;0.00;0.00;;;8.40;99.90;;;;;;5043617;28;20175;-69
2022/03/14 09:03:22;;;;;;;0.00;0.00;;;8.30;99.90;;;;;;5055506;28;20044;-63
2022/03/14 09:05:48;;;;;;;0.10;0.10;;;8.30;99.90;;;;;;5050938;28;20483;-68
2022/03/14 09:08:13;;;;;;;0.00;0.00;;;8.30;99.90;;;;;;5047545;28;20395;-67
2022/03/14 09:10:41;;;;;;;0.00;0.00;;;8.30;99.90;;;;;;5046379;28;20059;-68
2022/03/14 09:13:07;;;;;;;0.10;0.10;;;8.30;99.90;;;;;;5063831;28;20129;-68
2022/03/14 09:15:33;;;;;;;0.00;0.00;;;8.40;99.90;;;;;;5046215;28;20091;-69
2022/03/14 09:17:59;;;;;;;0.20;0.10;;;8.30;99.90;;;;;;5063521;28;20048;-68
2022/03/14 09:20:29;;;;;;;0.00;0.00;;;8.40;99.90;;;;;;5063963;28;20553;-70
2022/03/14 09:22:56;;;;;;;0.00;0.00;;;9.60;99.90;;;;;;5063329;28;20055;-65
2022/03/14 09:25:22;;;;;;;0.10;0.10;;;8.30;99.90;;;;;;5062900;28;20269;-65
2022/03/14 09:27:49;;;;;;;0.10;0.10;;;8.50;99.90;;;;;;5063079;28;20574;-64
2022/03/14 09:30:16;;;;;;;0.00;0.00;;;8.30;99.90;;;;;;5028276;28;20048;-64
2022/03/14 09:32:42;;;;;;;0.10;0.10;;;8.30;99.90;;;;;;5045484;28;20037;-64
2022/03/14 09:35:09;;;;;;;0.00;0.00;;;8.40;99.90;;;;;;5064032;28;20041;-64
2022/03/14 09:37:39;;;;;;;0.00;0.00;;;8.40;99.90;;;;;;5063276;28;20075;-64
2022/03/14 09:40:06;;;;;;;0.00;0.00;;;8.50;99.90;;;;;;5063429;28;20136;-64
2022/03/14 09:42:36;;;;;;;0.30;0.28;;;8.50;99.90;;;;;;5045637;28;20056;-65
2022/03/14 09:45:04;;;;;;;0.00;0.00;;;8.40;99.90;;;;;;5062540;28;20129;-64
2022/03/14 09:47:34;;;;;;;0.10;0.10;;;8.50;99.90;;;;;;5064326;28;20368;-64
2022/03/14 09:50:04;;;;;;;0.00;0.00;;;8.50;99.90;;;;;;5063870;28;20049;-64
2022/03/14 09:52:31;;;;;;;0.10;0.10;;;8.60;99.90;;;;;;5064074;28;20386;-63
2022/03/14 09:54:57;;;;;;;0.00;0.00;;;8.50;99.90;;;;;;5045277;28;20041;-64
2022/03/14 09:57:23;;;;;;;0.00;0.00;;;8.50;99.90;;;;;;5063499;28;20051;-62
2022/03/14 09:59:49;;;;;;;0.00;0.00;;;8.70;99.90;;;;;;5043965;28;20738;-64
2022/03/14 10:02:15;;;;;;;0.00;0.00;;;8.50;99.90;;;;;;5057340;28;20048;-63
2022/03/14 10:04:41;;;;;;;0.00;0.00;;;8.50;99.90;;;;;;5047017;28;20492;-62
2022/03/14 10:07:07;;;;;;;0.95;0.52;;;8.60;99.90;;;;;;5043432;28;20107;-64
2022/03/14 10:09:36;;;;;;;0.20;0.20;;;8.70;99.90;;;;;;5025438;28;20041;-63
2022/03/14 10:12:02;;;;;;;0.80;0.30;;;8.60;99.90;;;;;;5006314;28;1078438;-62
2022/03/14 10:14:28;;;;;;;0.08;0.08;;;8.60;99.90;;;;;;5043451;28;20692;-63
2022/03/14 10:16:56;;;;;;;0.00;0.00;;;8.60;99.90;;;;;;5043072;28;20063;-63
2022/03/14 10:19:30;;;;;;;0.00;0.00;;;8.70;99.90;;;;;;5026770;28;20040;-64
2022/03/14 10:21:56;;;;;;;0.00;0.00;;;8.70;99.90;;;;;;5043400;28;20521;-64
2022/03/14 10:24:23;;;;;;;0.00;0.00;;;8.60;99.90;;;;;;5025648;28;20145;-64
2022/03/14 10:26:49;;;;;;;0.20;0.20;;;8.70;99.90;;;;;;5043162;28;20041;-62
2022/03/14 10:29:15;;;;;;;0.00;0.00;;;8.70;99.90;;;;;;5043502;28;20400;-63
2022/03/14 10:31:54;;;;;;;0.00;0.00;;;8.60;99.90;;;;;;5043578;28;20120;-62
2022/03/14 10:34:20;;;;;;;0.00;0.00;;;8.60;99.90;;;;;;5043841;28;20067;-63
2022/03/14 10:36:50;;;;;;;0.00;0.00;;;8.90;99.90;;;;;;5043721;28;20126;-63
2022/03/14 10:39:19;;;;;;;0.00;0.00;;;8.70;99.90;;;;;;5042931;28;20043;-64
2022/03/14 10:42:08;;;;;;;0.00;0.00;;;8.60;99.90;;;;;;5043098;28;20063;-63
2022/03/14 10:44:36;;;;;;;0.05;0.05;;;8.70;99.90;;;;;;5025115;28;20059;-66
2022/03/14 10:47:09;;;;;;;0.00;0.00;;;8.80;99.90;;;;;;5043687;28;20572;-64
2022/03/14 10:49:38;;;;;;;0.68;0.57;;;8.80;99.90;;;;;;5043134;28;20399;-63
2022/03/14 10:52:10;;;;;;;0.20;0.20;;;8.80;99.90;;;;;;5043214;28;20067;-63
2022/03/14 10:54:37;;;;;;;0.25;0.13;;;8.80;99.90;;;;;;5043188;28;20450;-63
2022/03/14 10:57:09;;;;;;;0.00;0.00;;;8.70;99.90;;;;;;5043629;28;20044;-63
2022/03/14 10:59:44;;;;;;;0.30;0.30;;;8.80;99.90;;;;;;5042213;28;20403;-63
2022/03/14 11:02:12;;;;;;;0.00;0.00;;;8.70;99.90;;;;;;5049431;28;20045;-62
2022/03/14 11:04:52;;;;;;;0.00;0.00;;;8.80;99.90;;;;;;5047470;28;20098;-61
2022/03/14 11:07:25;;;;;;;0.13;0.13;;;9.10;99.90;;;;;;5042967;28;20133;-62
2022/03/14 11:09:56;;;;;;;0.00;0.00;;;8.80;99.90;;;;;;5042481;28;20462;-62
2022/03/14 11:12:24;;;;;;;0.35;0.35;;;8.60;99.90;;;;;;5042441;28;20045;-64
2022/03/14 11:14:54;;;;;;;0.00;0.00;;;8.50;99.90;;;;;;5041860;28;20103;-62
2022/03/14 11:17:23;;;;;;;0.00;0.00;;;8.40;99.90;;;;;;5043207;28;20049;-63
2022/03/14 11:19:49;;;;;;;0.00;0.00;;;8.40;99.90;;;;;;5042063;28;20435;-63
2022/03/14 11:22:16;;;;;;;0.00;0.00;;;8.60;99.90;;;;;;5042910;28;20091;-64
2022/03/14 11:24:46;;;;;;;0.00;0.00;;;8.50;99.90;;;;;;5042477;28;20041;-64
2022/03/14 11:27:21;;;;;;;0.28;0.28;;;8.60;99.90;;;;;;5042232;28;20055;-64
2022/03/14 11:29:48;;;;;;;0.00;0.00;;;8.50;99.90;;;;;;5042131;28;20437;-62
2022/03/14 11:32:16;;;;;;;0.00;0.00;;;8.50;99.90;;;;;;5042723;28;20059;-65
2022/03/14 11:34:44;;;;;;;0.00;0.00;;;8.40;99.90;;;;;;5042211;28;20060;-63
2022/03/14 11:37:10;;;;;;;0.00;0.00;;;8.50;99.90;;;;;;5042457;28;20048;-63
2022/03/14 11:39:36;;;;;;;0.00;0.00;;;8.50;99.90;;;;;;5042481;28;20120;-61
2022/03/14 11:42:03;;;;;;;0.15;0.08;;;8.60;99.90;;;;;;5042729;28;20148;-61
2022/03/14 11:44:29;;;;;;;0.00;0.00;;;8.70;99.90;;;;;;5024755;28;20045;-62
2022/03/14 11:46:56;;;;;;;0.00;0.00;;;8.70;99.90;;;;;;5024485;28;20056;-62
2022/03/14 11:49:26;;;;;;;0.00;0.00;;;8.80;99.90;;;;;;5042572;28;20454;-62
2022/03/14 11:52:09;;;;;;;0.00;0.00;;;9.00;99.90;;;;;;5042092;28;20045;-61
2022/03/14 11:54:37;;;;;;;0.00;0.00;;;8.80;99.90;;;;;;5042675;28;20040;-59
2022/03/14 11:57:02;;;;;;;0.00;0.00;;;9.00;99.90;;;;;;5042439;28;20045;-63
2022/03/14 11:59:30;;;;;;;0.00;0.00;;;8.80;99.90;;;;;;5024058;28;20506;-62
2022/03/14 12:02:00;;;;;;;0.00;0.00;;;8.70;99.90;;;;;;5046482;28;20553;-61
2022/03/14 12:04:30;;;;;;;0.00;0.00;;;9.10;99.90;;;;;;5052830;28;20045;-61
2022/03/14 12:06:57;;;;;;;0.00;0.00;;;8.90;99.90;;;;;;5046566;28;20496;-62
2022/03/14 12:09:25;;;;;;;0.00;0.00;;;8.70;99.90;;;;;;5046681;28;20048;-62
2022/03/14 12:11:55;;;;;;;0.00;0.00;;;8.80;99.90;;;;;;5045941;28;20126;-62
2022/03/14 12:14:33;;;;;;;0.10;0.10;;;8.90;99.90;;;;;;5046233;28;20505;-63
2022/03/14 12:17:27;;;;;;;0.00;0.00;;;8.90;99.90;;;;;;5046128;28;20059;-63
2022/03/14 12:20:05;;;;;;;0.10;0.10;;;8.90;99.90;;;;;;5045956;28;20052;-62
2022/03/14 12:22:32;;;;;;;0.00;0.00;;;9.00;99.90;;;;;;5046755;28;20052;-64
2022/03/14 12:24:59;;;;;;;0.00;0.00;;;8.90;99.90;;;;;;5045492;28;20134;-65
2022/03/14 12:27:26;;;;;;;0.00;0.00;;;8.80;99.90;;;;;;5046916;28;20419;-65
2022/03/14 12:29:54;;;;;;;0.00;0.00;;;8.80;99.90;;;;;;5045088;28;20095;-64
2022/03/14 12:32:36;;;;;;;0.00;0.00;;;8.80;99.90;;;;;;5046249;28;20124;-65
2022/03/14 12:35:12;;;;;;;0.00;0.00;;;8.90;99.90;;;;;;5046556;28;20394;-65
2022/03/14 12:37:47;;;;;;;0.00;0.00;;;8.90;99.90;;;;;;5045628;28;20045;-64
2022/03/14 12:40:18;;;;;;;0.00;0.00;;;8.90;99.90;;;;;;5046401;28;20037;-63
2022/03/14 12:42:46;;;;;;;0.00;0.00;;;8.90;99.90;;;;;;5045695;28;20053;-63
2022/03/14 12:45:21;;;;;;;0.20;0.20;;;8.90;99.90;;;;;;5045249;28;20530;-65
2022/03/14 12:48:02;;;;;;;0.00;0.00;;;9.00;99.90;;;;;;5045404;28;20487;-64
2022/03/14 12:50:42;;;;;;;0.00;0.00;;;8.90;99.90;;;;;;5045206;28;20049;-62
2022/03/14 12:53:31;;;;;;;0.00;0.00;;;9.00;99.90;;;;;;5045899;28;20044;-63
2022/03/14 12:55:59;;;;;;;0.00;0.00;;;8.90;99.90;;;;;;5032693;28;20049;-64
2022/03/14 12:58:30;;;;;;;0.10;0.10;;;10.00;99.90;;;;;;5027465;28;20269;-62